Terminal Aerodrome Forecast
Issued by NWS

Home | Current Version | Previous Version | Text Only | Print | Product List | Glossary On
Versions: 1 2 3 4 5 6 7 8 9 10 11 12 13 14 15 16 17 18 19 20 21
000
FTUS43 KFGF 272338
TAFBJI
TAF
KBJI 272338Z 2800/2824 13015KT P6SM BKN025
     FM280200 VRB04KT P6SM VCSH OVC035
     FM280800 VRB04KT P6SM SCT008 BKN015=

USA.gov is the U.S. government's official web portal to all federal, state and local government web resources and services.